createdAt,value
2018-08-30T00:01:37.922Z,8.30
2018-08-30T00:04:42.204Z,8.43
2018-08-30T00:07:46.492Z,8.53
2018-08-30T00:10:50.745Z,7.23
2018-08-30T00:13:54.966Z,8.53
2018-08-30T00:16:59.204Z,8.20
2018-08-30T00:20:03.641Z,7.77
2018-08-30T00:23:07.906Z,8.60
2018-08-30T00:26:12.158Z,9.20
2018-08-30T00:29:16.456Z,8.60
2018-08-30T00:32:20.705Z,8.80
2018-08-30T00:35:24.981Z,8.13
2018-08-30T00:38:29.213Z,9.53
2018-08-30T00:41:33.489Z,9.07
2018-08-30T00:44:37.733Z,8.30
2018-08-30T00:47:46.057Z,8.87
2018-08-30T00:50:50.317Z,8.40
2018-08-30T00:53:54.589Z,9.03
2018-08-30T00:56:58.857Z,10.13
2018-08-30T01:00:03.116Z,9.57
2018-08-30T01:03:07.359Z,9.50
2018-08-30T01:06:11.583Z,8.93
2018-08-30T01:09:15.861Z,10.33
2018-08-30T01:12:20.166Z,8.93
2018-08-30T01:15:26.659Z,8.63
2018-08-30T01:18:30.979Z,9.40
2018-08-30T01:21:35.240Z,9.27
2018-08-30T01:24:39.498Z,9.80
2018-08-30T01:27:43.780Z,9.10
2018-08-30T01:30:48.049Z,9.53
2018-08-30T01:33:52.340Z,9.43
2018-08-30T01:36:56.622Z,9.23
2018-08-30T01:40:00.860Z,10.00
2018-08-30T01:43:05.202Z,10.30
2018-08-30T01:46:09.473Z,9.80
2018-08-30T01:49:13.777Z,9.07
2018-08-30T01:52:18.021Z,9.37
2018-08-30T01:55:22.293Z,9.70
2018-08-30T01:58:26.533Z,9.47
2018-08-30T02:01:30.760Z,9.50
2018-08-30T02:04:34.993Z,9.63
2018-08-30T02:07:39.216Z,9.10
2018-08-30T02:10:43.456Z,9.60
2018-08-30T02:13:47.720Z,9.80
2018-08-30T02:16:51.968Z,9.87
2018-08-30T02:19:56.263Z,10.33
2018-08-30T02:23:00.510Z,9.60
2018-08-30T02:26:04.790Z,9.57
2018-08-30T02:29:09.039Z,10.00
2018-08-30T02:32:13.352Z,10.27
2018-08-30T02:35:17.589Z,10.47
2018-08-30T02:38:21.848Z,10.03
2018-08-30T02:41:26.112Z,10.90
2018-08-30T02:44:30.366Z,9.90
2018-08-30T02:47:34.595Z,10.30
2018-08-30T02:50:38.808Z,9.97
2018-08-30T02:53:43.155Z,10.50
2018-08-30T02:56:47.389Z,10.97
2018-08-30T02:59:51.692Z,10.20
2018-08-30T03:02:55.953Z,10.33
2018-08-30T03:06:00.183Z,10.93
2018-08-30T03:09:05.551Z,10.63
2018-08-30T03:12:09.785Z,10.43
2018-08-30T03:15:14.993Z,10.73
2018-08-30T03:18:19.236Z,11.47
2018-08-30T03:21:23.472Z,11.97
2018-08-30T03:24:27.759Z,12.30
2018-08-30T03:27:32.044Z,13.43
2018-08-30T03:30:36.390Z,12.80
2018-08-30T03:33:40.578Z,13.27
2018-08-30T03:36:44.869Z,13.87
2018-08-30T03:39:49.252Z,12.40
2018-08-30T03:42:53.492Z,13.03
2018-08-30T03:45:57.701Z,12.57
2018-08-30T03:49:01.984Z,12.67
2018-08-30T03:52:06.268Z,13.20
2018-08-30T03:55:10.573Z,13.50
2018-08-30T03:58:14.767Z,14.07
2018-08-30T04:01:19.006Z,14.80
2018-08-30T04:04:23.255Z,13.97
2018-08-30T04:07:27.492Z,14.57
2018-08-30T04:10:31.748Z,15.10
2018-08-30T04:13:36.018Z,15.17
2018-08-30T04:16:40.244Z,16.00
2018-08-30T04:19:44.449Z,15.53
2018-08-30T04:22:48.693Z,15.60
2018-08-30T04:25:52.964Z,14.83
2018-08-30T04:28:57.218Z,14.83
2018-08-30T04:32:01.441Z,15.37
2018-08-30T04:35:05.719Z,15.00
2018-08-30T04:38:09.945Z,16.27
2018-08-30T04:41:14.217Z,15.87
2018-08-30T04:44:18.448Z,16.53
2018-08-30T04:47:22.692Z,15.67
2018-08-30T04:50:26.960Z,16.93
2018-08-30T04:53:31.161Z,16.57
2018-08-30T04:56:35.401Z,17.70
2018-08-30T04:59:39.649Z,16.53
2018-08-30T05:02:44.204Z,17.57
2018-08-30T05:05:48.467Z,16.80
2018-08-30T05:08:52.696Z,17.43
2018-08-30T05:11:56.947Z,18.63
2018-08-30T05:15:01.153Z,17.77
2018-08-30T05:18:05.370Z,18.93
2018-08-30T05:21:09.597Z,18.27
2018-08-30T05:24:13.853Z,20.27
2018-08-30T05:27:18.097Z,20.00
2018-08-30T05:30:22.332Z,19.33
2018-08-30T05:33:26.561Z,20.30
2018-08-30T05:36:30.780Z,20.03
2018-08-30T05:39:35.038Z,20.90
2018-08-30T05:42:39.236Z,21.57
2018-08-30T05:45:43.498Z,23.17
2018-08-30T05:48:47.704Z,23.33
2018-08-30T05:51:51.921Z,23.43
2018-08-30T05:54:56.180Z,24.67
2018-08-30T05:58:00.382Z,24.63
2018-08-30T06:01:04.643Z,24.87
2018-08-30T06:04:08.929Z,24.50
2018-08-30T06:07:13.393Z,25.37
2018-08-30T06:10:17.620Z,25.43
2018-08-30T06:13:21.889Z,25.20
2018-08-30T06:16:26.089Z,23.43
2018-08-30T06:19:30.405Z,24.57
2018-08-30T06:22:34.636Z,23.63
2018-08-30T06:25:38.943Z,24.03
2018-08-30T06:28:43.209Z,22.73
2018-08-30T06:31:47.466Z,24.10
2018-08-30T06:34:51.791Z,23.17
2018-08-30T06:37:55.992Z,22.47
2018-08-30T06:41:00.245Z,22.67
2018-08-30T06:44:04.504Z,23.10
2018-08-30T06:47:08.729Z,22.70
2018-08-30T06:50:12.968Z,22.73
2018-08-30T06:53:17.178Z,21.47
2018-08-30T06:56:21.456Z,22.50
2018-08-30T06:59:25.684Z,20.57
2018-08-30T07:02:29.966Z,19.27
2018-08-30T07:05:34.200Z,20.73
2018-08-30T07:08:38.436Z,19.33
2018-08-30T07:11:42.704Z,19.73
2018-08-30T07:14:46.983Z,20.20
2018-08-30T07:17:51.217Z,23.67
2018-08-30T07:20:55.454Z,27.10
2018-08-30T07:23:59.697Z,22.07
2018-08-30T07:27:03.913Z,19.27
2018-08-30T07:30:11.793Z,19.70
2018-08-30T07:33:16.083Z,19.20
2018-08-30T07:36:20.313Z,19.80
2018-08-30T07:39:24.513Z,19.00
2018-08-30T07:42:28.749Z,20.93
2018-08-30T07:45:33.005Z,21.00
2018-08-30T07:48:37.297Z,23.33
2018-08-30T07:51:41.514Z,22.97
2018-08-30T07:54:45.739Z,21.87
2018-08-30T07:57:50.016Z,22.33
2018-08-30T08:00:54.209Z,21.10
2018-08-30T08:03:58.544Z,21.53
2018-08-30T08:07:04.868Z,19.30
2018-08-30T08:10:09.225Z,20.80
2018-08-30T08:13:14.544Z,20.43
2018-08-30T08:16:18.878Z,19.07
2018-08-30T08:19:23.118Z,18.80
2018-08-30T08:22:27.428Z,17.57
2018-08-30T08:25:31.642Z,16.77
2018-08-30T08:28:35.913Z,16.40
2018-08-30T08:31:40.153Z,15.77
2018-08-30T08:34:44.385Z,15.23
2018-08-30T08:37:48.613Z,15.23
2018-08-30T08:40:52.860Z,14.90
2018-08-30T08:43:57.107Z,15.00
2018-08-30T08:47:01.374Z,14.40
2018-08-30T08:50:08.072Z,15.77
2018-08-30T08:53:13.366Z,14.63
2018-08-30T08:56:17.773Z,15.97
2018-08-30T08:59:23.397Z,15.90
2018-08-30T09:02:27.676Z,17.13
2018-08-30T09:05:32.018Z,16.40
2018-08-30T09:08:36.262Z,18.20
2018-08-30T09:11:41.029Z,16.93
2018-08-30T09:14:45.253Z,16.23
2018-08-30T09:17:49.472Z,17.80
2018-08-30T09:20:53.813Z,16.47
2018-08-30T09:23:58.069Z,16.97
2018-08-30T09:27:02.371Z,15.97
2018-08-30T09:30:06.654Z,17.73
2018-08-30T09:33:10.897Z,17.00
2018-08-30T09:36:15.129Z,18.63
2018-08-30T09:39:19.456Z,17.07
2018-08-30T09:42:23.748Z,17.20
2018-08-30T09:45:28.031Z,16.07
2018-08-30T09:48:32.229Z,15.80
2018-08-30T09:51:36.444Z,15.20
2018-08-30T09:54:40.728Z,14.60
2018-08-30T09:57:44.937Z,13.20
2018-08-30T10:00:54.532Z,13.03
2018-08-30T10:03:58.851Z,13.60
2018-08-30T10:07:03.037Z,12.77
2018-08-30T10:10:08.081Z,12.33
2018-08-30T10:13:12.376Z,12.00
2018-08-30T10:16:16.605Z,11.97
2018-08-30T10:19:20.909Z,12.67
2018-08-30T10:22:25.190Z,13.03
2018-08-30T10:25:30.197Z,13.27
2018-08-30T10:28:34.434Z,12.60
2018-08-30T10:31:38.764Z,13.27
2018-08-30T10:34:43.073Z,13.73
2018-08-30T10:37:47.429Z,14.60
2018-08-30T10:40:51.681Z,13.37
2018-08-30T10:43:56.018Z,13.80
2018-08-30T10:47:00.262Z,14.30
2018-08-30T10:50:04.540Z,14.73
2018-08-30T10:53:08.776Z,14.30
2018-08-30T10:56:13.053Z,14.80
2018-08-30T10:59:17.307Z,16.00
2018-08-30T11:02:21.872Z,14.90
2018-08-30T11:05:26.242Z,16.23
2018-08-30T11:08:30.461Z,15.60
2018-08-30T11:11:34.674Z,15.83
2018-08-30T11:14:38.910Z,16.33
2018-08-30T11:17:43.164Z,14.87
2018-08-30T11:20:47.429Z,15.17
2018-08-30T11:23:51.693Z,13.27
2018-08-30T11:26:55.909Z,14.47
2018-08-30T11:30:00.129Z,14.77
2018-08-30T11:33:04.381Z,15.13
2018-08-30T11:36:08.645Z,15.50
2018-08-30T11:39:12.885Z,14.27
2018-08-30T11:42:17.112Z,15.70
2018-08-30T11:45:21.340Z,15.73
2018-08-30T11:48:25.581Z,16.40
2018-08-30T11:51:29.849Z,14.80
2018-08-30T11:54:34.046Z,14.83
2018-08-30T11:57:38.302Z,13.07
2018-08-30T12:00:42.549Z,13.03
2018-08-30T12:03:47.124Z,12.43
2018-08-30T12:06:51.400Z,11.23
2018-08-30T12:09:56.845Z,9.90
2018-08-30T12:13:00.123Z,8.87
2018-08-30T12:16:04.344Z,8.53
2018-08-30T12:19:08.560Z,8.13
2018-08-30T12:22:12.766Z,7.73
2018-08-30T12:25:16.972Z,8.13
2018-08-30T12:28:21.236Z,7.53
2018-08-30T12:31:25.477Z,6.80
2018-08-30T12:34:29.732Z,6.97
2018-08-30T12:37:33.944Z,6.93
2018-08-30T12:40:38.160Z,6.47
2018-08-30T12:43:42.418Z,6.40
2018-08-30T12:46:46.745Z,6.70
2018-08-30T12:49:50.968Z,6.07
2018-08-30T12:52:55.267Z,6.33
2018-08-30T12:55:59.535Z,6.43
2018-08-30T12:59:08.872Z,5.97
2018-08-30T13:02:13.189Z,5.60
2018-08-30T13:05:17.594Z,5.77
2018-08-30T13:08:21.826Z,5.40
2018-08-30T13:11:26.003Z,5.17
2018-08-30T13:14:30.470Z,5.73
2018-08-30T13:17:34.635Z,5.63
2018-08-30T13:20:38.931Z,5.77
2018-08-30T13:23:43.161Z,5.77
2018-08-30T13:26:47.449Z,5.20
2018-08-30T13:29:51.772Z,4.40
2018-08-30T13:32:56.237Z,4.97
2018-08-30T13:36:00.315Z,4.90
2018-08-30T13:39:05.716Z,4.50
2018-08-30T13:42:09.912Z,4.20
2018-08-30T13:45:13.992Z,4.37
2018-08-30T13:48:18.349Z,4.13
2018-08-30T13:51:22.511Z,4.00
2018-08-30T13:54:26.840Z,4.23
2018-08-30T13:57:31.084Z,3.90
2018-08-30T14:00:35.676Z,3.63
2018-08-30T14:03:39.461Z,4.07
2018-08-30T14:06:43.616Z,3.97
2018-08-30T14:09:47.835Z,3.83
2018-08-30T14:12:52.011Z,3.60
2018-08-30T14:15:56.056Z,3.70
2018-08-30T14:19:00.283Z,3.87
2018-08-30T14:22:04.619Z,3.53
2018-08-30T14:25:08.841Z,2.90
2018-08-30T14:28:13.037Z,2.30
2018-08-30T14:31:17.281Z,1.97
2018-08-30T14:34:21.641Z,2.10
2018-08-30T14:37:25.884Z,1.80
2018-08-30T14:40:30.186Z,1.73
2018-08-30T14:43:34.356Z,1.70
2018-08-30T14:46:38.666Z,1.83
2018-08-30T14:49:42.850Z,1.63
2018-08-30T14:52:47.055Z,1.47
2018-08-30T14:55:51.236Z,1.73
2018-08-30T14:58:55.496Z,1.87
2018-08-30T15:01:59.716Z,1.80
2018-08-30T15:05:03.993Z,1.90
2018-08-30T15:08:08.138Z,1.40
2018-08-30T15:11:12.475Z,2.10
2018-08-30T15:14:16.676Z,1.70
2018-08-30T15:17:20.906Z,1.20
2018-08-30T15:20:25.167Z,1.67
2018-08-30T15:23:29.470Z,1.97
2018-08-30T15:26:33.698Z,1.97
2018-08-30T15:29:37.981Z,1.70
2018-08-30T15:32:42.198Z,1.63
2018-08-30T15:35:46.409Z,1.57
2018-08-30T15:38:50.633Z,1.97
2018-08-30T15:41:54.829Z,2.17
2018-08-30T15:44:59.073Z,1.60
2018-08-30T15:48:03.398Z,1.80
2018-08-30T15:51:07.845Z,2.30
2018-08-30T15:54:12.090Z,2.80
2018-08-30T15:57:16.328Z,2.20
2018-08-30T16:00:20.533Z,2.30
2018-08-30T16:03:24.773Z,2.20
2018-08-30T16:06:28.961Z,2.00
2018-08-30T16:09:33.174Z,1.40
2018-08-30T16:12:37.454Z,2.03
2018-08-30T16:15:41.756Z,1.50
2018-08-30T16:18:45.919Z,2.33
2018-08-30T16:21:50.207Z,1.67
2018-08-30T16:24:54.489Z,1.90
2018-08-30T16:27:58.617Z,1.63
2018-08-30T16:31:02.809Z,1.80
2018-08-30T16:34:07.095Z,2.00
2018-08-30T16:37:11.358Z,5.33
2018-08-30T16:40:15.554Z,7.43
2018-08-30T16:43:19.756Z,1.67
2018-08-30T16:46:23.964Z,2.20
2018-08-30T16:49:28.177Z,1.60
2018-08-30T16:52:32.410Z,1.97
2018-08-30T16:55:37.199Z,1.67
2018-08-30T16:58:41.148Z,1.50
2018-08-30T17:01:45.377Z,1.90
2018-08-30T17:04:49.596Z,1.80
2018-08-30T17:07:53.793Z,2.20
2018-08-30T17:10:58.018Z,2.27
2018-08-30T17:14:02.210Z,2.07
2018-08-30T17:17:06.456Z,1.50
2018-08-30T17:20:17.481Z,2.07
2018-08-30T17:23:21.720Z,2.40
2018-08-30T17:26:26.025Z,1.90
2018-08-30T17:29:30.169Z,2.23
2018-08-30T17:32:34.399Z,1.70
2018-08-30T17:35:38.645Z,1.40
2018-08-30T17:38:42.853Z,1.23
2018-08-30T17:41:47.061Z,1.87
2018-08-30T17:44:51.264Z,1.80
2018-08-30T17:47:55.514Z,2.63
2018-08-30T17:50:59.737Z,2.47
2018-08-30T17:54:03.924Z,1.97
2018-08-30T17:57:08.148Z,2.13
2018-08-30T18:00:13.587Z,2.37
2018-08-30T18:03:17.813Z,2.40
2018-08-30T18:06:22.028Z,2.23
2018-08-30T18:09:26.249Z,1.67
2018-08-30T18:12:30.506Z,2.73
2018-08-30T18:15:34.720Z,2.83
2018-08-30T18:18:38.920Z,3.00
2018-08-30T18:21:43.172Z,3.40
2018-08-30T18:24:47.379Z,2.47
2018-08-30T18:27:51.630Z,3.40
2018-08-30T18:30:55.817Z,2.37
2018-08-30T18:34:00.113Z,2.40
2018-08-30T18:37:04.322Z,1.83
2018-08-30T18:40:09.449Z,1.83
2018-08-30T18:43:13.674Z,1.90
2018-08-30T18:46:17.979Z,1.87
2018-08-30T18:49:22.194Z,1.43
2018-08-30T18:52:26.417Z,1.57
2018-08-30T18:55:30.673Z,1.83
2018-08-30T18:58:34.877Z,2.00
2018-08-30T19:01:39.075Z,1.50
2018-08-30T19:04:43.361Z,1.80
2018-08-30T19:07:47.608Z,1.40
2018-08-30T19:10:51.900Z,1.77
2018-08-30T19:13:56.110Z,1.23
2018-08-30T19:17:05.556Z,2.00
2018-08-30T19:20:09.774Z,1.80
2018-08-30T19:23:13.977Z,1.97
2018-08-30T19:26:18.325Z,1.50
2018-08-30T19:29:22.524Z,1.73
2018-08-30T19:32:26.747Z,1.53
2018-08-30T19:35:36.149Z,2.10
2018-08-30T19:38:40.363Z,1.73
2018-08-30T19:41:44.589Z,1.73
2018-08-30T19:44:48.821Z,2.00
2018-08-30T19:47:53.009Z,1.97
2018-08-30T19:50:57.222Z,2.47
2018-08-30T19:54:01.430Z,2.27
2018-08-30T19:57:05.684Z,1.53
2018-08-30T20:00:09.904Z,2.30
2018-08-30T20:03:14.120Z,1.53
2018-08-30T20:06:18.297Z,1.40
2018-08-30T20:09:22.594Z,1.80
2018-08-30T20:12:26.739Z,1.73
2018-08-30T20:15:30.960Z,1.57
2018-08-30T20:18:35.208Z,2.13
2018-08-30T20:21:39.424Z,1.43
2018-08-30T20:24:44.520Z,1.67
2018-08-30T20:27:48.771Z,2.23
2018-08-30T20:30:52.986Z,1.90
2018-08-30T20:33:57.212Z,1.53
2018-08-30T20:37:01.436Z,1.80
2018-08-30T20:40:05.665Z,1.70
2018-08-30T20:43:09.878Z,1.70
2018-08-30T20:46:14.107Z,1.93
2018-08-30T20:49:18.327Z,1.60
2018-08-30T20:52:22.540Z,1.87
2018-08-30T20:55:26.789Z,1.60
2018-08-30T20:58:30.976Z,1.60
2018-08-30T21:01:35.233Z,1.53
2018-08-30T21:04:39.448Z,2.17
2018-08-30T21:07:43.648Z,1.77
2018-08-30T21:10:47.870Z,1.60
2018-08-30T21:13:52.068Z,2.13
2018-08-30T21:16:56.273Z,1.67
2018-08-30T21:20:00.501Z,2.63
2018-08-30T21:23:04.809Z,2.00
2018-08-30T21:26:09.516Z,1.83
2018-08-30T21:29:13.720Z,1.70
2018-08-30T21:32:17.921Z,1.90
2018-08-30T21:35:22.156Z,1.53
2018-08-30T21:38:26.361Z,1.90
2018-08-30T21:41:30.585Z,1.93
2018-08-30T21:44:34.793Z,1.93
2018-08-30T21:47:39.020Z,1.80
2018-08-30T21:50:43.233Z,1.80
2018-08-30T21:53:47.445Z,1.60
2018-08-30T21:56:51.657Z,1.70
2018-08-30T21:59:55.874Z,1.60
2018-08-30T22:03:00.100Z,2.33
2018-08-30T22:06:04.316Z,1.70
2018-08-30T22:09:10.677Z,2.47
2018-08-30T22:12:14.868Z,1.90
2018-08-30T22:15:19.077Z,1.80
2018-08-30T22:18:23.294Z,1.90
2018-08-30T22:21:27.492Z,1.80
2018-08-30T22:24:31.684Z,2.10
2018-08-30T22:27:35.903Z,1.53
2018-08-30T22:30:40.129Z,1.80
2018-08-30T22:33:44.350Z,1.87
2018-08-30T22:36:48.572Z,1.37
2018-08-30T22:39:52.795Z,1.90
2018-08-30T22:42:57.021Z,1.77
2018-08-30T22:46:01.240Z,1.40
2018-08-30T22:49:05.625Z,2.27
2018-08-30T22:52:09.851Z,2.13
2018-08-30T22:55:14.062Z,1.33
2018-08-30T22:58:18.292Z,1.60
2018-08-30T23:01:22.492Z,2.07
2018-08-30T23:04:26.740Z,2.03
2018-08-30T23:07:30.937Z,1.50
2018-08-30T23:10:35.148Z,2.07
2018-08-30T23:13:39.357Z,1.50
2018-08-30T23:16:43.573Z,1.67
2018-08-30T23:19:47.792Z,1.70
2018-08-30T23:22:52.049Z,2.03
2018-08-30T23:25:56.290Z,2.00
2018-08-30T23:29:00.489Z,1.77
2018-08-30T23:32:04.741Z,1.77
2018-08-30T23:35:08.941Z,2.00
2018-08-30T23:38:13.141Z,1.40
2018-08-30T23:41:17.344Z,1.70
2018-08-30T23:44:21.561Z,2.13
2018-08-30T23:47:25.780Z,1.90
2018-08-30T23:50:29.976Z,1.67
2018-08-30T23:53:34.172Z,1.70
2018-08-30T23:56:38.379Z,2.03
2018-08-30T23:59:59.580Z,1.97
